Time;durP1;ratioP1;P1;durP2;ratioP2;P2;SDS_P1;SDS_P2;PMS_P1;PMS_P2;Temp;Humidity;BMP_temperature;BMP_pressure;BME280_temperature;BME280_humidity;BME280_pressure;Samples;Min_cycle;Max_cycle;Signal;HPM_P1;HPM_P2
2022/06/21 00:02:25;;;;;;;8.80;3.85;;;13.50;99.90;;;;;;5050161;28;20177;-54
2022/06/21 00:04:51;;;;;;;11.15;4.10;;;13.50;99.90;;;;;;5050308;28;20175;-55
2022/06/21 00:07:28;;;;;;;5.22;3.45;;;13.40;99.90;;;;;;5049991;28;20583;-54
2022/06/21 00:09:54;;;;;;;11.02;3.63;;;13.40;99.90;;;;;;5052066;28;20180;-54
2022/06/21 00:12:22;;;;;;;9.65;3.72;;;13.40;99.90;;;;;;5053717;28;20174;-55
2022/06/21 00:14:48;;;;;;;12.30;4.05;;;13.40;99.90;;;;;;5053643;28;20215;-55
2022/06/21 00:17:17;;;;;;;10.68;3.58;;;13.40;99.90;;;;;;5053108;28;20173;-55
2022/06/21 00:19:44;;;;;;;12.00;3.97;;;13.30;99.90;;;;;;5053864;28;20173;-55
2022/06/21 00:22:15;;;;;;;10.02;4.25;;;13.20;99.90;;;;;;5053671;28;20250;-55
2022/06/21 00:24:42;;;;;;;7.90;3.70;;;13.20;99.90;;;;;;5036136;28;20641;-55
2022/06/21 00:27:17;;;;;;;8.65;3.75;;;13.20;99.90;;;;;;5053357;28;20177;-55
2022/06/21 00:29:44;;;;;;;11.68;4.63;;;13.20;99.90;;;;;;5053740;28;20176;-55
2022/06/21 00:32:18;;;;;;;10.43;3.85;;;13.20;99.90;;;;;;5053388;28;20169;-55
2022/06/21 00:34:46;;;;;;;7.47;3.97;;;13.10;99.90;;;;;;5053389;28;20216;-55
2022/06/21 00:37:19;;;;;;;11.10;4.25;;;13.10;99.90;;;;;;5053330;28;20173;-55
2022/06/21 00:39:45;;;;;;;10.35;4.00;;;13.10;99.90;;;;;;5053680;28;20256;-55
2022/06/21 00:42:37;;;;;;;8.20;3.90;;;13.10;99.90;;;;;;5053443;28;20256;-55
2022/06/21 00:45:13;;;;;;;11.30;5.00;;;13.00;99.90;;;;;;5051313;28;20213;-55
2022/06/21 00:47:44;;;;;;;10.32;5.75;;;13.10;99.90;;;;;;5053235;28;20187;-55
2022/06/21 00:50:18;;;;;;;12.15;5.78;;;13.00;99.90;;;;;;5052958;28;20191;-55
2022/06/21 00:52:59;;;;;;;11.30;6.15;;;13.10;99.90;;;;;;5053393;28;20185;-54
2022/06/21 00:55:34;;;;;;;12.18;7.22;;;13.10;99.90;;;;;;5053197;28;20212;-55
2022/06/21 00:58:01;;;;;;;11.70;6.47;;;13.10;99.90;;;;;;5052847;28;20231;-54
2022/06/21 01:00:37;;;;;;;13.80;7.22;;;13.10;99.90;;;;;;5052743;28;20259;-55
2022/06/21 01:03:21;;;;;;;8.88;5.03;;;13.20;99.90;;;;;;5052750;28;20260;-55
2022/06/21 01:05:47;;;;;;;11.40;5.50;;;13.20;99.90;;;;;;5052765;28;20208;-56
2022/06/21 01:08:19;;;;;;;7.35;3.83;;;13.20;99.90;;;;;;5052144;28;20644;-56
2022/06/21 01:10:48;;;;;;;8.02;3.72;;;13.00;99.90;;;;;;5052513;28;20264;-55
2022/06/21 01:13:21;;;;;;;5.22;3.60;;;12.70;99.90;;;;;;5052683;28;20261;-56
2022/06/21 01:15:50;;;;;;;8.80;4.00;;;12.50;99.90;;;;;;5052820;28;20165;-56
2022/06/21 01:18:18;;;;;;;8.60;4.07;;;12.50;99.90;;;;;;5052559;28;20173;-56
2022/06/21 01:20:48;;;;;;;7.20;3.80;;;12.50;99.90;;;;;;5051319;28;20177;-56
2022/06/21 01:23:27;;;;;;;7.78;3.83;;;12.40;99.90;;;;;;5052713;28;20177;-55
2022/06/21 01:26:04;;;;;;;11.17;3.90;;;12.40;99.90;;;;;;5052688;28;20184;-56
2022/06/21 01:28:32;;;;;;;15.40;4.10;;;12.40;99.90;;;;;;5032800;28;20227;-56
2022/06/21 01:30:58;;;;;;;8.10;4.18;;;12.40;99.90;;;;;;5024517;28;20484;-55
2022/06/21 01:33:33;;;;;;;6.90;3.90;;;12.40;99.90;;;;;;5052566;28;20188;-55
2022/06/21 01:36:06;;;;;;;7.03;3.65;;;12.40;99.90;;;;;;5052551;28;20196;-55
2022/06/21 01:38:43;;;;;;;6.35;3.45;;;12.40;99.90;;;;;;5051395;28;20247;-55
2022/06/21 01:41:15;;;;;;;9.73;3.97;;;12.50;99.90;;;;;;5052015;28;20252;-55
2022/06/21 01:43:43;;;;;;;9.05;3.85;;;12.50;99.90;;;;;;5052595;28;20235;-54
2022/06/21 01:46:13;;;;;;;13.43;4.18;;;12.40;99.90;;;;;;5051765;28;20169;-55
2022/06/21 01:48:45;;;;;;;7.13;4.00;;;12.30;99.90;;;;;;5051984;28;20173;-55
2022/06/21 01:51:15;;;;;;;13.68;4.15;;;12.30;99.90;;;;;;5051665;28;20181;-56
2022/06/21 01:53:41;;;;;;;9.15;4.40;;;12.30;99.90;;;;;;5052065;28;20224;-56
2022/06/21 01:56:12;;;;;;;9.27;4.53;;;12.20;99.90;;;;;;5034021;28;20182;-56
2022/06/21 01:58:43;;;;;;;10.97;4.63;;;12.20;99.90;;;;;;5032088;28;20168;-56
2022/06/21 02:01:30;;;;;;;8.95;4.78;;;12.20;99.90;;;;;;5041960;28;20263;-56
2022/06/21 02:04:01;;;;;;;9.93;4.80;;;13.70;99.90;;;;;;5051713;28;20180;-56
2022/06/21 02:06:30;;;;;;;8.20;4.57;;;12.10;99.90;;;;;;5051257;28;20311;-56
2022/06/21 02:09:05;;;;;;;9.20;4.80;;;12.10;99.90;;;;;;5051233;28;20188;-56
2022/06/21 02:11:38;;;;;;;14.68;5.28;;;12.10;99.90;;;;;;5051085;28;20184;-56
2022/06/21 02:14:29;;;;;;;12.30;4.87;;;12.20;99.90;;;;;;5051148;28;20212;-56
2022/06/21 02:17:13;;;;;;;10.07;4.88;;;12.20;99.90;;;;;;5051549;28;20192;-56
2022/06/21 02:20:06;;;;;;;12.05;4.75;;;12.30;99.90;;;;;;5051392;28;20169;-55
2022/06/21 02:22:33;;;;;;;7.82;4.65;;;12.30;99.90;;;;;;5051358;28;20647;-56
2022/06/21 02:24:59;;;;;;;9.57;4.63;;;12.40;99.90;;;;;;5051454;28;20166;-56
2022/06/21 02:27:29;;;;;;;10.33;4.33;;;12.30;99.90;;;;;;5050556;28;20184;-56
2022/06/21 02:29:58;;;;;;;9.80;4.43;;;12.30;99.90;;;;;;5051333;28;20230;-56
2022/06/21 02:32:36;;;;;;;8.98;4.10;;;12.10;99.90;;;;;;5050158;28;20176;-56
2022/06/21 02:35:21;;;;;;;12.35;4.20;;;12.10;99.90;;;;;;5050962;28;20248;-55
2022/06/21 02:37:50;;;;;;;9.87;4.40;;;12.00;99.90;;;;;;5051007;28;20264;-55
2022/06/21 02:40:33;;;;;;;10.70;4.80;;;12.00;99.90;;;;;;5050688;28;20169;-55
2022/06/21 02:43:09;;;;;;;7.87;3.93;;;11.90;99.90;;;;;;5051173;28;20184;-55
2022/06/21 02:45:48;;;;;;;6.47;4.07;;;11.90;99.90;;;;;;5051137;28;20180;-55
2022/06/21 02:48:24;;;;;;;8.70;4.20;;;11.90;99.90;;;;;;5050818;28;20226;-56
2022/06/21 02:50:54;;;;;;;10.35;4.43;;;12.00;99.90;;;;;;5050657;28;20204;-55
2022/06/21 02:53:30;;;;;;;12.13;4.20;;;12.00;99.90;;;;;;5050868;28;20216;-56
2022/06/21 02:56:07;;;;;;;12.20;4.63;;;12.10;99.90;;;;;;5050948;28;20184;-56
2022/06/21 03:01:36;;;;;;;9.07;4.13;;;12.80;99.90;;;;;;4205046;22;20252;-56
2022/06/21 03:04:04;;;;;;;10.40;4.20;;;12.10;99.90;;;;;;5030632;28;20185;-56
2022/06/21 03:06:31;;;;;;;11.60;4.77;;;12.10;99.90;;;;;;5030903;28;20178;-56
2022/06/21 03:09:06;;;;;;;9.03;4.30;;;12.10;99.90;;;;;;5030739;28;20216;-56
2022/06/21 03:11:39;;;;;;;9.10;4.43;;;12.10;99.90;;;;;;5030908;28;20189;-56
2022/06/21 03:14:08;;;;;;;6.95;3.60;;;12.00;99.90;;;;;;5030705;28;20244;-56
2022/06/21 03:16:34;;;;;;;7.97;3.60;;;11.90;99.90;;;;;;5030819;28;20213;-56
2022/06/21 03:19:06;;;;;;;9.80;3.57;;;11.70;99.90;;;;;;5030557;28;20575;-56
2022/06/21 03:21:35;;;;;;;8.43;3.70;;;11.50;99.90;;;;;;5030656;28;20170;-56
2022/06/21 03:24:06;;;;;;;6.47;3.73;;;11.30;99.90;;;;;;5030635;28;20182;-56
2022/06/21 03:26:34;;;;;;;7.10;4.00;;;11.30;99.90;;;;;;5030693;28;20170;-56
2022/06/21 03:29:00;;;;;;;9.93;3.37;;;11.30;99.90;;;;;;5030654;28;20240;-56
2022/06/21 03:31:33;;;;;;;9.67;3.83;;;11.30;99.90;;;;;;5030729;28;20170;-56
2022/06/21 03:34:10;;;;;;;9.43;3.60;;;11.30;99.90;;;;;;5030716;28;20331;-56
2022/06/21 03:36:36;;;;;;;9.17;4.20;;;11.30;99.90;;;;;;5030703;28;20231;-56
2022/06/21 03:39:09;;;;;;;8.37;3.63;;;11.40;99.90;;;;;;5030340;28;20174;-56
2022/06/21 03:41:43;;;;;;;14.77;3.60;;;11.40;99.90;;;;;;5030607;28;20213;-57
2022/06/21 03:44:33;;;;;;;5.90;3.70;;;11.40;99.90;;;;;;5033767;28;20223;-56
2022/06/21 03:46:59;;;;;;;8.07;4.03;;;11.40;99.90;;;;;;5034720;28;20197;-56
2022/06/21 03:49:47;;;;;;;6.67;3.60;;;11.40;99.90;;;;;;5034290;28;20289;-57
2022/06/21 03:52:44;;;;;;;6.00;3.83;;;11.40;99.90;;;;;;5034940;28;20174;-57
2022/06/21 03:55:22;;;;;;;10.87;4.20;;;11.40;99.90;;;;;;5023542;28;20271;-56
2022/06/21 03:57:56;;;;;;;7.47;4.13;;;11.40;99.90;;;;;;5034457;28;20251;-57
2022/06/21 04:00:23;;;;;;;8.87;4.17;;;11.40;99.90;;;;;;5033801;28;20197;-56
2022/06/21 04:03:06;;;;;;;10.50;4.57;;;11.40;99.90;;;;;;5034279;28;20192;-57
2022/06/21 04:05:37;;;;;;;10.23;4.53;;;11.40;99.90;;;;;;5034414;28;20173;-56
2022/06/21 04:08:17;;;;;;;9.13;4.40;;;11.40;99.90;;;;;;5033824;28;20178;-56
2022/06/21 04:10:49;;;;;;;7.97;4.60;;;11.40;99.90;;;;;;5016582;28;20181;-57
2022/06/21 04:13:25;;;;;;;10.83;3.80;;;11.50;99.90;;;;;;5034175;28;20166;-56
2022/06/21 04:15:57;;;;;;;7.63;3.77;;;11.50;99.90;;;;;;5033902;28;20555;-56
2022/06/21 04:18:44;;;;;;;6.53;3.77;;;11.40;99.90;;;;;;5033722;28;20176;-56
2022/06/21 04:21:37;;;;;;;7.30;4.17;;;11.30;99.90;;;;;;5018686;28;20182;-57
2022/06/21 04:24:19;;;;;;;6.87;3.70;;;11.40;99.90;;;;;;5034041;28;20257;-56
2022/06/21 04:26:57;;;;;;;10.27;3.80;;;11.30;99.90;;;;;;5034027;28;20204;-56
2022/06/21 04:29:32;;;;;;;7.00;3.50;;;11.20;99.90;;;;;;5033629;28;20192;-56
2022/06/21 04:32:23;;;;;;;6.87;3.30;;;11.20;99.90;;;;;;5033924;28;20173;-56
2022/06/21 04:34:56;;;;;;;7.43;3.77;;;11.20;99.90;;;;;;5032884;28;20235;-56
2022/06/21 04:37:34;;;;;;;8.77;3.63;;;11.10;99.90;;;;;;5033475;28;20670;-57
2022/06/21 04:40:09;;;;;;;7.83;3.67;;;11.00;99.90;;;;;;5033356;28;20169;-56
2022/06/21 04:42:49;;;;;;;10.00;4.07;;;11.00;99.90;;;;;;5033621;28;20173;-56
2022/06/21 04:45:38;;;;;;;7.50;3.60;;;11.00;99.90;;;;;;5033751;28;20231;-59
2022/06/21 04:48:12;;;;;;;8.60;4.30;;;11.00;99.90;;;;;;5033149;28;20181;-56
2022/06/21 04:50:46;;;;;;;11.27;4.53;;;11.00;99.90;;;;;;5033484;28;20184;-55
2022/06/21 04:53:23;;;;;;;10.00;4.83;;;11.10;99.90;;;;;;5033564;28;20174;-56
2022/06/21 04:56:11;;;;;;;5.37;3.63;;;11.10;99.90;;;;;;5032632;28;20186;-56
2022/06/21 04:58:36;;;;;;;13.00;4.60;;;11.30;99.90;;;;;;5018268;28;20209;-55
2022/06/21 05:01:29;;;;;;;10.50;4.13;;;11.20;99.90;;;;;;5032640;28;20249;-56
2022/06/21 05:03:49;;;;;;;11.50;5.07;;;11.30;99.90;;;;;;5033174;28;20181;-55
2022/06/21 05:06:15;;;;;;;10.93;3.90;;;11.30;99.90;;;;;;5032966;28;20170;-56
2022/06/21 05:08:42;;;;;;;9.60;4.17;;;11.40;99.90;;;;;;5032720;28;20516;-56
2022/06/21 05:11:12;;;;;;;6.60;4.03;;;11.50;99.90;;;;;;5033178;28;20166;-55
2022/06/21 05:13:44;;;;;;;7.40;4.30;;;11.50;99.90;;;;;;5032850;28;20173;-57
2022/06/21 05:16:18;;;;;;;8.40;3.93;;;11.60;99.90;;;;;;5033033;28;20216;-56
2022/06/21 05:19:09;;;;;;;10.90;4.87;;;11.70;99.90;;;;;;5032374;28;20173;-58
2022/06/21 05:21:52;;;;;;;11.40;3.97;;;11.80;99.90;;;;;;5032625;28;20232;-58
2022/06/21 05:24:19;;;;;;;13.43;4.70;;;11.80;99.90;;;;;;5032783;28;20193;-55
2022/06/21 05:27:03;;;;;;;9.13;4.53;;;12.00;99.90;;;;;;5032535;28;20655;-55
2022/06/21 05:29:45;;;;;;;12.37;4.47;;;12.00;99.90;;;;;;5032240;28;20256;-56
2022/06/21 05:32:17;;;;;;;12.75;4.20;;;12.10;99.90;;;;;;5032772;28;20672;-55
2022/06/21 05:34:48;;;;;;;8.53;4.83;;;12.20;99.90;;;;;;5032618;28;20236;-55
2022/06/21 05:37:36;;;;;;;11.17;4.57;;;12.20;99.90;;;;;;5032572;28;20178;-55
2022/06/21 05:40:13;;;;;;;12.88;4.60;;;12.30;99.90;;;;;;5032164;28;20725;-55
2022/06/21 05:42:39;;;;;;;9.70;4.53;;;12.30;99.90;;;;;;5032295;28;20177;-55
2022/06/21 05:45:15;;;;;;;15.60;4.63;;;12.40;99.90;;;;;;5014373;28;20697;-55
2022/06/21 05:47:48;;;;;;;10.80;5.00;;;12.50;99.90;;;;;;5032356;28;20216;-55
2022/06/21 05:50:22;;;;;;;13.05;4.63;;;12.60;99.90;;;;;;5032007;28;20189;-55
2022/06/21 05:52:52;;;;;;;12.70;4.82;;;12.70;99.90;;;;;;5032294;28;20200;-55
2022/06/21 05:55:24;;;;;;;10.80;4.70;;;12.80;99.90;;;;;;5031876;28;20201;-55
2022/06/21 05:57:52;;;;;;;15.20;5.30;;;13.00;99.90;;;;;;5032147;28;20223;-55
2022/06/21 06:00:29;;;;;;;16.13;5.43;;;13.00;99.90;;;;;;5031486;28;20213;-54
2022/06/21 06:03:01;;;;;;;11.93;5.32;;;13.00;99.90;;;;;;5032050;28;20177;-54
2022/06/21 06:05:31;;;;;;;11.50;5.82;;;13.10;99.90;;;;;;5032123;28;20174;-54
2022/06/21 06:08:11;;;;;;;14.35;4.90;;;13.20;99.90;;;;;;5030628;28;20180;-54
2022/06/21 06:10:38;;;;;;;13.48;5.82;;;13.30;99.90;;;;;;5031237;28;20705;-54
2022/06/21 06:13:13;;;;;;;11.73;5.40;;;13.40;99.90;;;;;;5031484;28;20181;-54
2022/06/21 06:15:50;;;;;;;14.18;5.53;;;13.60;99.90;;;;;;5031266;28;20208;-55
2022/06/21 06:18:31;;;;;;;11.20;5.70;;;13.60;99.90;;;;;;5011541;28;20189;-55
2022/06/21 06:21:05;;;;;;;13.45;5.97;;;13.60;99.90;;;;;;5011949;28;20163;-53
2022/06/21 06:23:38;;;;;;;13.60;6.18;;;13.70;99.90;;;;;;5030966;28;20166;-54
2022/06/21 06:26:12;;;;;;;15.30;5.63;;;13.80;99.90;;;;;;5031683;28;20652;-55
2022/06/21 06:28:51;;;;;;;17.98;5.80;;;13.80;99.90;;;;;;5031778;28;20169;-55
2022/06/21 06:31:29;;;;;;;19.35;5.97;;;13.90;99.90;;;;;;5031320;28;20188;-55
2022/06/21 06:34:07;;;;;;;17.27;5.57;;;14.00;99.90;;;;;;5011691;28;20220;-54
2022/06/21 06:37:07;;;;;;;10.50;5.45;;;14.10;99.90;;;;;;5027981;28;20185;-55
2022/06/21 06:39:36;;;;;;;12.40;5.53;;;14.20;99.90;;;;;;5013316;28;20261;-55
2022/06/21 06:42:25;;;;;;;10.98;5.25;;;14.30;99.90;;;;;;5031077;28;20722;-58
2022/06/21 06:44:59;;;;;;;13.70;5.32;;;14.40;99.90;;;;;;5030938;28;20651;-58
2022/06/21 06:47:38;;;;;;;16.67;5.55;;;14.50;99.90;;;;;;5031284;28;20240;-57
2022/06/21 06:50:10;;;;;;;16.90;5.50;;;14.60;99.90;;;;;;5030612;28;20312;-58
2022/06/21 06:52:46;;;;;;;13.75;5.18;;;14.70;99.90;;;;;;5030546;28;20180;-58
2022/06/21 06:55:33;;;;;;;13.82;4.88;;;14.80;99.90;;;;;;5030419;28;20232;-59
2022/06/21 06:58:09;;;;;;;14.38;5.70;;;14.90;99.90;;;;;;5031112;28;20220;-59
2022/06/21 07:00:42;;;;;;;14.73;5.50;;;15.00;99.90;;;;;;5030464;28;20232;-58
2022/06/21 07:03:18;;;;;;;14.60;5.90;;;15.10;99.90;;;;;;5030684;28;20485;-58
2022/06/21 07:05:53;;;;;;;13.15;5.78;;;15.20;99.90;;;;;;5030730;28;20177;-59
2022/06/21 07:08:46;;;;;;;16.08;6.05;;;15.40;99.90;;;;;;5030478;28;20197;-58
2022/06/21 07:11:29;;;;;;;14.75;5.05;;;15.50;99.90;;;;;;5030890;28;20178;-59
2022/06/21 07:13:56;;;;;;;14.63;5.60;;;15.60;99.90;;;;;;5030575;28;20202;-58
2022/06/21 07:16:24;;;;;;;13.93;5.50;;;15.70;99.90;;;;;;5029850;28;20280;-58
2022/06/21 07:18:53;;;;;;;18.92;6.00;;;15.80;99.90;;;;;;5030447;28;20182;-58
2022/06/21 07:21:21;;;;;;;16.63;5.97;;;15.90;99.90;;;;;;5028955;28;20178;-59
2022/06/21 07:23:47;;;;;;;13.82;5.38;;;16.00;99.90;;;;;;5030282;28;20284;-58
2022/06/21 07:26:41;;;;;;;13.68;6.10;;;16.20;99.90;;;;;;5030175;28;20641;-57
2022/06/21 07:29:28;;;;;;;10.85;5.63;;;16.30;99.90;;;;;;5021502;28;20276;-58
2022/06/21 07:31:59;;;;;;;15.35;5.43;;;16.40;99.90;;;;;;5029940;28;20227;-58
2022/06/21 07:34:50;;;;;;;18.15;5.13;;;16.40;99.90;;;;;;5029756;28;20212;-57
2022/06/21 07:37:24;;;;;;;13.75;4.70;;;16.60;99.90;;;;;;5029998;28;20177;-58
2022/06/21 07:40:14;;;;;;;9.30;4.68;;;16.70;99.90;;;;;;5030324;28;20169;-57
2022/06/21 07:42:57;;;;;;;11.00;4.82;;;16.80;99.90;;;;;;5029924;28;20810;-57
2022/06/21 07:45:51;;;;;;;13.57;4.38;;;17.00;99.90;;;;;;5030227;28;20170;-59
2022/06/21 07:48:48;;;;;;;13.73;4.20;;;17.20;99.90;;;;;;5030062;28;20224;-58
2022/06/21 07:51:33;;;;;;;11.57;4.32;;;17.20;99.90;;;;;;5030407;28;20173;-58
2022/06/21 07:54:19;;;;;;;10.77;4.45;;;17.30;99.90;;;;;;5030509;28;20217;-58
2022/06/21 07:56:50;;;;;;;14.10;3.45;;;17.40;99.90;;;;;;5029953;28;20648;-59
2022/06/21 07:59:27;;;;;;;15.45;4.40;;;17.60;99.90;;;;;;5030398;28;20181;-58
2022/06/21 08:08:33;;;;;;;9.27;3.78;;;17.90;99.90;;;;;;5030098;28;20189;-56
2022/06/21 08:11:12;;;;;;;9.25;3.65;;;18.10;99.90;;;;;;5009807;28;20170;-56
2022/06/21 08:13:40;;;;;;;9.73;4.07;;;18.10;99.90;;;;;;5010379;28;20305;-56
2022/06/21 08:16:36;;;;;;;15.18;4.30;;;18.20;99.90;;;;;;5010277;28;20171;-56
2022/06/21 08:19:29;;;;;;;9.35;4.13;;;18.30;99.90;;;;;;5009855;28;20174;-57
2022/06/21 08:22:28;;;;;;;10.27;3.55;;;18.50;99.90;;;;;;4979643;28;20687;-56
2022/06/21 08:25:07;;;;;;;11.20;3.85;;;18.60;99.90;;;;;;5025905;28;20182;-56
2022/06/21 08:27:48;;;;;;;9.43;3.83;;;18.70;99.90;;;;;;5009492;28;20253;-57
2022/06/21 08:30:29;;;;;;;13.77;4.15;;;18.70;99.90;;;;;;5013486;28;20170;-57
2022/06/21 08:33:07;;;;;;;7.03;3.30;;;18.80;99.90;;;;;;5023983;28;20177;-57
2022/06/21 08:35:48;;;;;;;12.60;3.22;;;18.90;99.90;;;;;;5029475;28;20205;-56
2022/06/21 08:38:29;;;;;;;10.98;3.38;;;19.00;99.90;;;;;;5032490;28;20326;-57
2022/06/21 08:41:51;;;;;;;8.32;3.40;;;19.20;99.90;;;;;;5033514;28;20181;-55
2022/06/21 08:44:39;;;;;;;10.93;3.70;;;19.60;99.90;;;;;;5033176;28;20186;-55
2022/06/21 08:47:42;;;;;;;10.48;3.15;;;19.90;99.90;;;;;;4962533;28;20188;-56
2022/06/21 08:50:36;;;;;;;8.65;2.95;;;20.40;99.90;;;;;;5033281;28;20170;-62
2022/06/21 08:53:31;;;;;;;10.15;3.53;;;20.60;99.90;;;;;;5033215;28;20232;-62
2022/06/21 08:56:26;;;;;;;12.90;3.85;;;21.00;99.90;;;;;;5033180;28;20243;-62
2022/06/21 08:59:10;;;;;;;8.88;3.85;;;21.30;99.90;;;;;;5032700;28;20162;-63
2022/06/21 09:02:10;;;;;;;8.73;3.40;;;21.80;99.90;;;;;;5031885;28;20221;-63
2022/06/21 09:05:07;;;;;;;9.55;3.85;;;21.80;99.90;;;;;;5021646;28;20280;-63
2022/06/21 09:07:48;;;;;;;7.35;2.85;;;22.00;99.90;;;;;;5032273;28;20656;-63
2022/06/21 09:10:38;;;;;;;8.05;3.22;;;22.50;99.90;;;;;;5032417;28;20166;-62
2022/06/21 09:13:53;;;;;;;15.88;3.08;;;22.80;99.90;;;;;;5033017;28;20308;-63
2022/06/21 09:16:21;;;;;;;8.60;3.25;;;23.10;99.90;;;;;;5032178;28;20170;-62
2022/06/21 09:18:59;;;;;;;8.80;3.22;;;23.40;99.90;;;;;;5032890;28;20254;-63
2022/06/21 09:22:02;;;;;;;7.50;2.67;;;23.70;99.90;;;;;;5032824;28;20177;-62
2022/06/21 09:24:37;;;;;;;6.47;2.88;;;23.30;99.90;;;;;;5031669;28;20172;-62
2022/06/21 09:27:19;;;;;;;7.95;3.42;;;23.80;99.90;;;;;;5032484;28;20184;-62
2022/06/21 09:30:10;;;;;;;9.93;3.60;;;23.20;99.90;;;;;;5032833;28;20174;-62
2022/06/21 09:32:38;;;;;;;8.68;3.08;;;23.30;99.90;;;;;;5029820;28;20216;-63
2022/06/21 09:35:24;;;;;;;9.27;3.45;;;23.70;99.90;;;;;;5032484;28;20217;-62
2022/06/21 09:37:59;;;;;;;10.43;3.28;;;23.90;99.90;;;;;;5030525;28;20221;-62
2022/06/21 09:40:35;;;;;;;9.68;3.33;;;23.70;99.90;;;;;;5030352;28;20204;-62
2022/06/21 09:43:10;;;;;;;6.60;3.15;;;23.60;99.90;;;;;;5016214;28;20644;-62
2022/06/21 09:45:40;;;;;;;10.60;3.15;;;23.60;99.90;;;;;;5011877;28;20174;-62
2022/06/21 09:48:24;;;;;;;11.07;3.15;;;23.60;99.90;;;;;;5012028;28;20190;-62
2022/06/21 09:51:01;;;;;;;9.55;3.92;;;23.60;99.90;;;;;;5011563;28;20174;-61
2022/06/21 09:53:46;;;;;;;10.23;2.70;;;23.60;99.90;;;;;;5011918;28;20167;-63
2022/06/21 09:56:26;;;;;;;11.35;3.70;;;23.80;99.90;;;;;;5011391;28;20233;-63
2022/06/21 09:59:09;;;;;;;13.00;3.70;;;23.10;99.90;;;;;;5011582;28;20162;-63
2022/06/21 10:01:59;;;;;;;8.57;3.78;;;22.50;99.90;;;;;;5024439;28;20224;-62
2022/06/21 10:04:41;;;;;;;11.50;3.50;;;23.20;99.90;;;;;;5030748;28;20190;-62
2022/06/21 10:07:13;;;;;;;10.75;3.38;;;23.90;99.90;;;;;;5030595;28;20217;-63
2022/06/21 10:10:17;;;;;;;9.02;3.35;;;24.20;99.90;;;;;;5030184;28;20640;-63
2022/06/21 10:13:20;;;;;;;9.57;3.45;;;24.60;99.90;;;;;;5030466;28;20663;-62
2022/06/21 10:15:52;;;;;;;13.38;3.25;;;25.10;99.90;;;;;;5031248;28;20228;-62
2022/06/21 10:18:18;;;;;;;10.65;3.20;;;24.10;99.90;;;;;;5030597;28;20870;-63
2022/06/21 10:20:56;;;;;;;7.65;3.45;;;24.50;99.90;;;;;;5031251;28;20284;-63
2022/06/21 10:23:57;;;;;;;9.57;3.13;;;25.00;99.90;;;;;;5030462;28;20176;-64
2022/06/21 10:27:03;;;;;;;16.05;3.53;;;25.20;99.90;;;;;;5030733;28;20185;-64
2022/06/21 10:30:03;;;;;;;8.88;3.38;;;25.10;99.90;;;;;;5031180;28;20177;-63
2022/06/21 10:32:56;;;;;;;7.13;3.10;;;25.10;99.90;;;;;;5031479;28;20166;-64
2022/06/21 10:36:04;;;;;;;12.00;3.30;;;25.30;99.90;;;;;;5030823;28;20216;-64
2022/06/21 10:38:35;;;;;;;7.28;2.95;;;25.70;99.90;;;;;;5031029;28;20184;-64
2022/06/21 10:41:25;;;;;;;10.00;3.20;;;25.90;99.90;;;;;;5031492;28;20178;-64
2022/06/21 10:44:12;;;;;;;7.88;2.80;;;26.10;99.90;;;;;;5030662;28;20177;-64
2022/06/21 10:46:49;;;;;;;9.48;3.50;;;26.30;99.90;;;;;;5032669;28;20232;-63
2022/06/21 10:50:03;;;;;;;8.65;2.72;;;26.20;99.90;;;;;;5029273;28;20235;-64
2022/06/21 10:52:40;;;;;;;6.22;2.63;;;25.90;99.90;;;;;;5001581;28;20175;-64
2022/06/21 10:55:09;;;;;;;10.13;2.47;;;25.90;99.90;;;;;;5011606;28;20209;-62
2022/06/21 10:57:52;;;;;;;8.20;2.75;;;25.90;99.90;;;;;;5022142;28;20641;-62
2022/06/21 11:03:16;;;;;;;11.75;3.70;;;26.50;99.90;;;;;;5030758;28;20189;-63
2022/06/21 11:05:57;;;;;;;7.65;2.95;;;26.50;99.90;;;;;;5031258;28;20617;-63
2022/06/21 11:08:31;;;;;;;6.32;2.78;;;26.50;99.90;;;;;;5031102;28;20178;-63
2022/06/21 11:11:06;;;;;;;8.15;2.78;;;26.50;99.90;;;;;;5031065;28;20635;-66
2022/06/21 11:13:44;;;;;;;9.13;2.97;;;26.80;99.90;;;;;;5030825;28;20184;-63
2022/06/21 11:16:31;;;;;;;10.10;2.90;;;26.70;99.90;;;;;;5030235;28;20223;-64
2022/06/21 11:19:08;;;;;;;6.18;2.90;;;26.60;99.90;;;;;;5029355;28;20173;-64
2022/06/21 11:21:39;;;;;;;11.18;3.20;;;26.30;99.90;;;;;;5030207;28;20239;-64
2022/06/21 11:24:13;;;;;;;7.20;2.35;;;25.80;99.90;;;;;;5030789;28;20186;-63
2022/06/21 11:26:42;;;;;;;9.70;2.97;;;25.60;99.90;;;;;;5030428;28;20678;-63
2022/06/21 11:29:22;;;;;;;12.27;2.80;;;25.70;99.90;;;;;;5030136;28;20181;-64
2022/06/21 11:32:13;;;;;;;5.97;2.72;;;26.20;99.90;;;;;;5012518;28;20182;-63
2022/06/21 11:34:54;;;;;;;7.30;3.00;;;26.30;99.90;;;;;;5013608;28;20233;-64
2022/06/21 11:37:29;;;;;;;10.38;2.90;;;26.30;99.90;;;;;;5027139;28;20201;-63
2022/06/21 11:40:13;;;;;;;8.80;3.00;;;26.70;99.90;;;;;;5030135;28;20264;-64
2022/06/21 11:42:53;;;;;;;7.93;2.90;;;27.20;99.90;;;;;;5029867;28;20209;-63
2022/06/21 11:45:31;;;;;;;10.43;3.20;;;27.20;99.90;;;;;;5030508;28;20173;-64
2022/06/21 11:48:33;;;;;;;7.22;2.63;;;27.50;99.90;;;;;;5030502;28;20174;-63
2022/06/21 11:51:11;;;;;;;7.97;2.90;;;27.70;99.90;;;;;;5030366;28;20643;-64
2022/06/21 11:53:44;;;;;;;6.55;2.65;;;27.30;99.90;;;;;;5030247;28;20227;-63
2022/06/21 11:56:31;;;;;;;9.38;2.97;;;27.70;99.90;;;;;;5030441;28;20182;-63
2022/06/21 11:59:24;;;;;;;5.07;2.30;;;28.10;99.90;;;;;;5030226;28;20170;-63
2022/06/21 12:02:13;;;;;;;7.35;2.92;;;28.70;99.90;;;;;;5030173;28;20225;-64
2022/06/21 12:04:44;;;;;;;9.32;2.50;;;28.60;99.90;;;;;;5022568;28;20664;-64
2022/06/21 12:07:41;;;;;;;13.32;3.20;;;28.30;99.90;;;;;;5034478;28;20166;-64
2022/06/21 12:10:19;;;;;;;7.38;2.63;;;29.30;99.90;;;;;;5018506;28;20186;-64
2022/06/21 12:12:57;;;;;;;9.52;2.97;;;29.40;99.90;;;;;;5014500;28;20175;-64
2022/06/21 12:15:34;;;;;;;6.45;2.33;;;26.60;99.90;;;;;;5013628;28;20264;-64
2022/06/21 12:18:05;;;;;;;9.05;2.92;;;26.80;99.90;;;;;;5014111;28;20638;-64
2022/06/21 12:21:06;;;;;;;7.40;2.70;;;26.80;99.90;;;;;;5014137;28;20183;-64
2022/06/21 12:23:44;;;;;;;7.80;2.33;;;26.80;99.90;;;;;;4989916;28;20185;-64
2022/06/21 12:26:22;;;;;;;4.78;2.55;;;27.60;99.90;;;;;;5033864;28;20182;-64
2022/06/21 12:28:49;;;;;;;10.27;2.50;;;28.10;99.90;;;;;;5033318;28;20173;-64
2022/06/21 12:31:37;;;;;;;9.43;2.78;;;27.50;99.90;;;;;;5032978;28;20173;-64
2022/06/21 12:34:26;;;;;;;6.57;2.78;;;28.40;99.90;;;;;;5032454;28;20212;-64
2022/06/21 12:37:04;;;;;;;5.80;2.45;;;29.30;99.90;;;;;;5033326;28;20700;-64
2022/06/21 12:39:44;;;;;;;7.63;2.58;;;30.00;99.90;;;;;;5032219;28;20185;-65
2022/06/21 12:42:34;;;;;;;7.05;2.58;;;30.70;99.90;;;;;;5032768;28;20182;-65
2022/06/21 12:45:39;;;;;;;13.05;2.97;;;31.50;99.90;;;;;;5033120;28;20265;-64
2022/06/21 12:48:07;;;;;;;13.48;2.90;;;32.00;99.90;;;;;;5027673;28;20173;-64
2022/06/21 12:50:50;;;;;;;7.68;2.88;;;31.90;99.90;;;;;;5014532;28;20166;-64
2022/06/21 12:53:35;;;;;;;10.68;2.83;;;32.00;99.90;;;;;;5033031;28;20209;-64
2022/06/21 12:56:31;;;;;;;9.27;2.58;;;31.60;99.90;;;;;;5033527;28;20209;-64
2022/06/21 12:59:11;;;;;;;5.97;2.70;;;29.70;99.90;;;;;;5033371;28;20201;-65
2022/06/21 13:01:41;;;;;;;10.40;2.85;;;28.20;99.90;;;;;;5032902;28;20731;-64
2022/06/21 13:04:25;;;;;;;9.25;2.60;;;28.00;99.90;;;;;;5033492;28;20239;-65
2022/06/21 13:07:50;;;;;;;8.48;2.70;;;28.50;99.90;;;;;;5032613;28;20174;-64
2022/06/21 13:10:18;;;;;;;5.40;2.28;;;29.10;99.90;;;;;;4932918;29;20192;-64
2022/06/21 13:13:04;;;;;;;5.47;2.25;;;30.40;99.90;;;;;;4933878;29;20209;-64
2022/06/21 13:15:42;;;;;;;5.13;2.00;;;30.80;99.90;;;;;;4957839;28;20238;-64
2022/06/21 13:18:30;;;;;;;9.20;2.67;;;30.50;99.90;;;;;;5022712;28;20166;-63
2022/06/21 13:21:08;;;;;;;13.98;2.65;;;29.80;99.90;;;;;;5032717;28;20673;-65
2022/06/21 13:23:53;;;;;;;5.85;2.50;;;30.00;99.90;;;;;;5033165;28;20193;-65
2022/06/21 13:26:32;;;;;;;5.80;2.13;;;30.90;99.90;;;;;;5031832;28;20170;-64
2022/06/21 13:29:16;;;;;;;7.95;3.10;;;30.90;99.90;;;;;;5018715;28;20188;-65
2022/06/21 13:31:48;;;;;;;7.88;2.60;;;31.30;99.90;;;;;;5012664;28;20187;-64
2022/06/21 13:34:20;;;;;;;10.85;2.85;;;31.20;99.90;;;;;;5028481;28;20219;-64
2022/06/21 13:36:50;;;;;;;5.35;2.17;;;30.70;99.90;;;;;;5030812;28;20178;-64
2022/06/21 13:39:44;;;;;;;7.05;2.60;;;30.20;99.90;;;;;;5030669;28;20169;-64
2022/06/21 13:45:04;;;;;;;13.43;2.90;;;31.10;99.90;;;;;;5032499;28;20204;-65
2022/06/21 13:47:43;;;;;;;7.18;2.25;;;31.70;99.90;;;;;;5032155;28;20161;-64
2022/06/21 13:50:56;;;;;;;7.82;2.38;;;31.70;99.90;;;;;;5032587;28;20282;-64
2022/06/21 13:53:56;;;;;;;7.28;2.03;;;32.20;99.90;;;;;;4951384;28;20280;-64
2022/06/21 13:56:39;;;;;;;5.78;2.40;;;31.40;99.90;;;;;;4950196;28;20694;-64
2022/06/21 13:59:23;;;;;;;11.80;2.75;;;31.50;99.90;;;;;;5016995;28;20219;-66